sensor_id;sensor_type;location;lat;lon;timestamp;P1;durP1;ratioP1;P2;durP2;ratioP2
3875;SDS011;1953;51.222;6.624;2023-03-09T00:02:51;66.33;;;28.27;;
3875;SDS011;1953;51.222;6.624;2023-03-09T00:10:05;64.77;;;27.90;;
3875;SDS011;1953;51.222;6.624;2023-03-09T00:14:51;69.37;;;27.57;;
3875;SDS011;1953;51.222;6.624;2023-03-09T00:19:34;69.33;;;27.43;;
3875;SDS011;1953;51.222;6.624;2023-03-09T00:24:17;64.53;;;26.07;;
3875;SDS011;1953;51.222;6.624;2023-03-09T00:29:02;56.80;;;23.50;;
3875;SDS011;1953;51.222;6.624;2023-03-09T00:33:46;60.73;;;26.07;;
3875;SDS011;1953;51.222;6.624;2023-03-09T00:38:29;60.00;;;24.57;;
3875;SDS011;1953;51.222;6.624;2023-03-09T00:43:11;59.93;;;25.77;;
3875;SDS011;1953;51.222;6.624;2023-03-09T00:47:55;61.77;;;25.10;;
3875;SDS011;1953;51.222;6.624;2023-03-09T00:52:37;55.23;;;24.17;;
3875;SDS011;1953;51.222;6.624;2023-03-09T00:57:20;54.17;;;25.20;;
3875;SDS011;1953;51.222;6.624;2023-03-09T01:02:02;59.17;;;25.00;;
3875;SDS011;1953;51.222;6.624;2023-03-09T01:06:46;55.23;;;26.30;;
3875;SDS011;1953;51.222;6.624;2023-03-09T01:11:29;58.27;;;24.97;;
3875;SDS011;1953;51.222;6.624;2023-03-09T01:16:11;57.83;;;25.47;;
3875;SDS011;1953;51.222;6.624;2023-03-09T01:20:54;57.43;;;24.83;;
3875;SDS011;1953;51.222;6.624;2023-03-09T01:25:38;61.57;;;25.93;;
3875;SDS011;1953;51.222;6.624;2023-03-09T01:30:20;60.80;;;25.87;;
3875;SDS011;1953;51.222;6.624;2023-03-09T01:35:03;69.30;;;26.00;;
3875;SDS011;1953;51.222;6.624;2023-03-09T01:39:47;70.40;;;27.00;;
3875;SDS011;1953;51.222;6.624;2023-03-09T01:44:31;66.83;;;27.27;;
3875;SDS011;1953;51.222;6.624;2023-03-09T01:49:18;54.90;;;25.30;;
3875;SDS011;1953;51.222;6.624;2023-03-09T01:54:07;61.87;;;25.07;;
3875;SDS011;1953;51.222;6.624;2023-03-09T01:58:52;68.67;;;28.57;;
3875;SDS011;1953;51.222;6.624;2023-03-09T02:03:38;69.97;;;28.43;;
3875;SDS011;1953;51.222;6.624;2023-03-09T02:08:24;79.77;;;29.40;;
3875;SDS011;1953;51.222;6.624;2023-03-09T02:13:09;77.80;;;29.47;;
3875;SDS011;1953;51.222;6.624;2023-03-09T02:17:54;73.27;;;27.73;;
3875;SDS011;1953;51.222;6.624;2023-03-09T02:22:38;74.10;;;27.90;;
3875;SDS011;1953;51.222;6.624;2023-03-09T02:27:23;74.17;;;27.43;;
3875;SDS011;1953;51.222;6.624;2023-03-09T02:32:07;79.30;;;29.20;;
3875;SDS011;1953;51.222;6.624;2023-03-09T02:36:50;100.07;;;31.80;;
3875;SDS011;1953;51.222;6.624;2023-03-09T02:41:32;83.13;;;30.40;;
3875;SDS011;1953;51.222;6.624;2023-03-09T02:46:16;87.50;;;30.30;;
3875;SDS011;1953;51.222;6.624;2023-03-09T02:50:59;87.50;;;30.00;;
3875;SDS011;1953;51.222;6.624;2023-03-09T02:55:41;99.67;;;32.80;;
3875;SDS011;1953;51.222;6.624;2023-03-09T03:00:23;89.13;;;31.60;;
3875;SDS011;1953;51.222;6.624;2023-03-09T03:05:08;103.13;;;31.90;;
3875;SDS011;1953;51.222;6.624;2023-03-09T03:09:51;103.27;;;34.20;;
3875;SDS011;1953;51.222;6.624;2023-03-09T03:14:34;97.00;;;32.93;;
3875;SDS011;1953;51.222;6.624;2023-03-09T03:19:17;99.17;;;32.47;;
3875;SDS011;1953;51.222;6.624;2023-03-09T03:24:01;90.37;;;31.20;;
3875;SDS011;1953;51.222;6.624;2023-03-09T03:28:43;89.33;;;31.67;;
3875;SDS011;1953;51.222;6.624;2023-03-09T03:33:26;93.80;;;32.97;;
3875;SDS011;1953;51.222;6.624;2023-03-09T03:38:09;106.20;;;33.20;;
3875;SDS011;1953;51.222;6.624;2023-03-09T03:42:52;96.63;;;32.77;;
3875;SDS011;1953;51.222;6.624;2023-03-09T03:47:35;105.63;;;31.70;;
3875;SDS011;1953;51.222;6.624;2023-03-09T03:52:17;82.90;;;29.10;;
3875;SDS011;1953;51.222;6.624;2023-03-09T03:57:00;98.87;;;32.00;;
3875;SDS011;1953;51.222;6.624;2023-03-09T04:01:45;99.77;;;31.77;;
3875;SDS011;1953;51.222;6.624;2023-03-09T04:06:28;96.87;;;30.60;;
3875;SDS011;1953;51.222;6.624;2023-03-09T04:11:11;102.83;;;30.10;;
3875;SDS011;1953;51.222;6.624;2023-03-09T04:15:54;106.47;;;33.23;;
3875;SDS011;1953;51.222;6.624;2023-03-09T04:20:38;96.13;;;32.77;;
3875;SDS011;1953;51.222;6.624;2023-03-09T04:25:22;119.00;;;34.60;;
3875;SDS011;1953;51.222;6.624;2023-03-09T04:30:05;111.37;;;34.60;;
3875;SDS011;1953;51.222;6.624;2023-03-09T04:34:48;106.03;;;33.97;;
3875;SDS011;1953;51.222;6.624;2023-03-09T04:39:32;109.03;;;34.67;;
3875;SDS011;1953;51.222;6.624;2023-03-09T04:44:14;117.17;;;34.80;;
3875;SDS011;1953;51.222;6.624;2023-03-09T04:48:57;110.00;;;34.03;;
3875;SDS011;1953;51.222;6.624;2023-03-09T04:53:39;101.63;;;35.20;;
3875;SDS011;1953;51.222;6.624;2023-03-09T04:58:23;111.67;;;34.77;;
3875;SDS011;1953;51.222;6.624;2023-03-09T05:03:06;111.83;;;33.17;;
3875;SDS011;1953;51.222;6.624;2023-03-09T05:07:48;103.20;;;33.30;;
3875;SDS011;1953;51.222;6.624;2023-03-09T05:12:31;114.73;;;35.47;;
3875;SDS011;1953;51.222;6.624;2023-03-09T05:17:15;122.50;;;34.73;;
3875;SDS011;1953;51.222;6.624;2023-03-09T05:21:57;102.53;;;35.17;;
3875;SDS011;1953;51.222;6.624;2023-03-09T05:26:40;233.30;;;40.17;;
3875;SDS011;1953;51.222;6.624;2023-03-09T05:31:22;110.27;;;34.63;;
3875;SDS011;1953;51.222;6.624;2023-03-09T05:36:13;105.23;;;34.97;;
3875;SDS011;1953;51.222;6.624;2023-03-09T05:40:57;115.23;;;35.50;;
3875;SDS011;1953;51.222;6.624;2023-03-09T05:45:39;111.07;;;34.77;;
3875;SDS011;1953;51.222;6.624;2023-03-09T05:50:22;113.77;;;35.23;;
3875;SDS011;1953;51.222;6.624;2023-03-09T05:55:06;117.90;;;36.03;;
3875;SDS011;1953;51.222;6.624;2023-03-09T05:59:50;118.60;;;35.87;;
3875;SDS011;1953;51.222;6.624;2023-03-09T06:04:32;118.07;;;33.67;;
3875;SDS011;1953;51.222;6.624;2023-03-09T06:09:15;1397.43;;;99.67;;
3875;SDS011;1953;51.222;6.624;2023-03-09T06:13:59;139.80;;;36.57;;
3875;SDS011;1953;51.222;6.624;2023-03-09T06:18:41;140.50;;;38.67;;
3875;SDS011;1953;51.222;6.624;2023-03-09T06:23:24;129.93;;;35.67;;
3875;SDS011;1953;51.222;6.624;2023-03-09T06:28:07;141.10;;;37.20;;
3875;SDS011;1953;51.222;6.624;2023-03-09T06:32:52;122.20;;;37.17;;
3875;SDS011;1953;51.222;6.624;2023-03-09T06:37:34;111.93;;;32.97;;
3875;SDS011;1953;51.222;6.624;2023-03-09T06:42:17;124.90;;;36.27;;
3875;SDS011;1953;51.222;6.624;2023-03-09T06:46:59;124.40;;;35.00;;
3875;SDS011;1953;51.222;6.624;2023-03-09T06:51:43;116.07;;;34.70;;
3875;SDS011;1953;51.222;6.624;2023-03-09T06:56:26;121.30;;;36.03;;
3875;SDS011;1953;51.222;6.624;2023-03-09T07:01:09;123.40;;;34.70;;
3875;SDS011;1953;51.222;6.624;2023-03-09T07:05:52;120.87;;;33.30;;
3875;SDS011;1953;51.222;6.624;2023-03-09T07:10:36;127.17;;;36.00;;
3875;SDS011;1953;51.222;6.624;2023-03-09T07:15:19;119.60;;;31.17;;
3875;SDS011;1953;51.222;6.624;2023-03-09T07:20:01;107.20;;;31.90;;
3875;SDS011;1953;51.222;6.624;2023-03-09T07:24:44;105.00;;;30.77;;
3875;SDS011;1953;51.222;6.624;2023-03-09T07:29:28;104.10;;;29.97;;
3875;SDS011;1953;51.222;6.624;2023-03-09T07:34:10;97.87;;;30.20;;
3875;SDS011;1953;51.222;6.624;2023-03-09T07:38:53;101.70;;;32.00;;
3875;SDS011;1953;51.222;6.624;2023-03-09T07:43:35;106.20;;;34.20;;
3875;SDS011;1953;51.222;6.624;2023-03-09T07:48:25;100.10;;;31.27;;
3875;SDS011;1953;51.222;6.624;2023-03-09T07:53:08;106.10;;;31.60;;
3875;SDS011;1953;51.222;6.624;2023-03-09T07:57:50;105.97;;;30.83;;
3875;SDS011;1953;51.222;6.624;2023-03-09T08:02:33;100.67;;;30.70;;
3875;SDS011;1953;51.222;6.624;2023-03-09T08:07:17;107.13;;;32.00;;
3875;SDS011;1953;51.222;6.624;2023-03-09T08:12:00;108.60;;;35.00;;
3875;SDS011;1953;51.222;6.624;2023-03-09T08:16:42;111.17;;;33.63;;
3875;SDS011;1953;51.222;6.624;2023-03-09T08:21:25;98.50;;;32.03;;
3875;SDS011;1953;51.222;6.624;2023-03-09T08:26:09;103.97;;;32.30;;
3875;SDS011;1953;51.222;6.624;2023-03-09T08:30:53;104.47;;;31.77;;
3875;SDS011;1953;51.222;6.624;2023-03-09T08:35:36;97.30;;;33.07;;
3875;SDS011;1953;51.222;6.624;2023-03-09T08:40:18;96.93;;;30.73;;
3875;SDS011;1953;51.222;6.624;2023-03-09T08:45:02;100.50;;;33.30;;
3875;SDS011;1953;51.222;6.624;2023-03-09T08:49:46;91.40;;;32.70;;
3875;SDS011;1953;51.222;6.624;2023-03-09T08:54:29;104.87;;;31.93;;
3875;SDS011;1953;51.222;6.624;2023-03-09T08:59:11;86.73;;;31.13;;
3875;SDS011;1953;51.222;6.624;2023-03-09T09:03:55;76.03;;;29.80;;
3875;SDS011;1953;51.222;6.624;2023-03-09T09:08:39;75.93;;;27.60;;
3875;SDS011;1953;51.222;6.624;2023-03-09T09:13:21;70.80;;;26.37;;
3875;SDS011;1953;51.222;6.624;2023-03-09T09:18:04;75.37;;;28.07;;
3875;SDS011;1953;51.222;6.624;2023-03-09T09:22:48;67.17;;;26.37;;
3875;SDS011;1953;51.222;6.624;2023-03-09T09:27:31;69.90;;;26.63;;
3875;SDS011;1953;51.222;6.624;2023-03-09T09:32:13;71.90;;;28.60;;
3875;SDS011;1953;51.222;6.624;2023-03-09T09:36:55;67.03;;;27.37;;
3875;SDS011;1953;51.222;6.624;2023-03-09T09:41:40;62.43;;;24.97;;
3875;SDS011;1953;51.222;6.624;2023-03-09T09:46:25;67.70;;;26.70;;
3875;SDS011;1953;51.222;6.624;2023-03-09T09:51:10;68.70;;;29.37;;
3875;SDS011;1953;51.222;6.624;2023-03-09T09:56:05;72.20;;;28.57;;
3875;SDS011;1953;51.222;6.624;2023-03-09T10:00:54;71.33;;;29.97;;
3875;SDS011;1953;51.222;6.624;2023-03-09T10:05:40;60.17;;;27.60;;
3875;SDS011;1953;51.222;6.624;2023-03-09T10:10:27;58.87;;;25.70;;
3875;SDS011;1953;51.222;6.624;2023-03-09T10:15:13;62.40;;;27.50;;
3875;SDS011;1953;51.222;6.624;2023-03-09T10:20:09;62.33;;;26.67;;
3875;SDS011;1953;51.222;6.624;2023-03-09T10:24:55;69.17;;;28.43;;
3875;SDS011;1953;51.222;6.624;2023-03-09T10:29:40;59.97;;;25.70;;
3875;SDS011;1953;51.222;6.624;2023-03-09T10:34:27;60.33;;;26.17;;
3875;SDS011;1953;51.222;6.624;2023-03-09T10:39:13;62.70;;;26.77;;
3875;SDS011;1953;51.222;6.624;2023-03-09T10:43:57;57.30;;;26.40;;
3875;SDS011;1953;51.222;6.624;2023-03-09T10:48:41;49.67;;;24.40;;
3875;SDS011;1953;51.222;6.624;2023-03-09T10:53:30;53.23;;;25.87;;
3875;SDS011;1953;51.222;6.624;2023-03-09T10:58:18;48.90;;;23.07;;
3875;SDS011;1953;51.222;6.624;2023-03-09T11:03:03;47.60;;;23.40;;
3875;SDS011;1953;51.222;6.624;2023-03-09T11:07:48;56.83;;;26.40;;
3875;SDS011;1953;51.222;6.624;2023-03-09T11:12:33;58.50;;;25.80;;
3875;SDS011;1953;51.222;6.624;2023-03-09T11:17:31;55.80;;;23.77;;
3875;SDS011;1953;51.222;6.624;2023-03-09T11:22:15;49.70;;;23.10;;
3875;SDS011;1953;51.222;6.624;2023-03-09T11:27:01;49.47;;;22.50;;
3875;SDS011;1953;51.222;6.624;2023-03-09T11:31:46;51.80;;;24.30;;
3875;SDS011;1953;51.222;6.624;2023-03-09T11:36:32;55.17;;;24.67;;
3875;SDS011;1953;51.222;6.624;2023-03-09T11:41:21;55.50;;;26.73;;
3875;SDS011;1953;51.222;6.624;2023-03-09T11:46:08;57.53;;;27.50;;
3875;SDS011;1953;51.222;6.624;2023-03-09T11:50:56;53.53;;;26.20;;
3875;SDS011;1953;51.222;6.624;2023-03-09T11:55:44;55.23;;;26.30;;
3875;SDS011;1953;51.222;6.624;2023-03-09T12:00:30;56.70;;;27.30;;
3875;SDS011;1953;51.222;6.624;2023-03-09T12:05:15;54.10;;;25.63;;
3875;SDS011;1953;51.222;6.624;2023-03-09T12:11:06;55.70;;;26.87;;
3875;SDS011;1953;51.222;6.624;2023-03-09T12:15:58;53.03;;;25.80;;
3875;SDS011;1953;51.222;6.624;2023-03-09T12:20:48;51.90;;;25.90;;
3875;SDS011;1953;51.222;6.624;2023-03-09T12:25:32;57.03;;;26.80;;
3875;SDS011;1953;51.222;6.624;2023-03-09T12:30:22;59.93;;;26.70;;
3875;SDS011;1953;51.222;6.624;2023-03-09T12:40:30;64.77;;;27.63;;
3875;SDS011;1953;51.222;6.624;2023-03-09T12:45:24;62.63;;;27.50;;
3875;SDS011;1953;51.222;6.624;2023-03-09T12:50:20;60.10;;;29.13;;
3875;SDS011;1953;51.222;6.624;2023-03-09T12:55:16;52.63;;;24.73;;
3875;SDS011;1953;51.222;6.624;2023-03-09T13:05:12;65.80;;;27.63;;
3875;SDS011;1953;51.222;6.624;2023-03-09T13:10:05;55.80;;;27.73;;
3875;SDS011;1953;51.222;6.624;2023-03-09T13:15:17;58.40;;;27.07;;
3875;SDS011;1953;51.222;6.624;2023-03-09T13:20:15;57.63;;;27.20;;
3875;SDS011;1953;51.222;6.624;2023-03-09T13:30:18;51.30;;;23.60;;
3875;SDS011;1953;51.222;6.624;2023-03-09T13:35:11;48.23;;;23.47;;
3875;SDS011;1953;51.222;6.624;2023-03-09T13:39:59;44.27;;;22.00;;
3875;SDS011;1953;51.222;6.624;2023-03-09T13:44:45;47.50;;;23.80;;
3875;SDS011;1953;51.222;6.624;2023-03-09T13:49:29;48.10;;;23.77;;
3875;SDS011;1953;51.222;6.624;2023-03-09T13:54:22;46.70;;;22.80;;
3875;SDS011;1953;51.222;6.624;2023-03-09T13:59:10;49.73;;;25.30;;
3875;SDS011;1953;51.222;6.624;2023-03-09T14:03:57;48.57;;;24.10;;
3875;SDS011;1953;51.222;6.624;2023-03-09T14:08:40;44.67;;;20.87;;
3875;SDS011;1953;51.222;6.624;2023-03-09T14:13:26;46.43;;;20.93;;
3875;SDS011;1953;51.222;6.624;2023-03-09T14:18:13;41.13;;;21.50;;
3875;SDS011;1953;51.222;6.624;2023-03-09T14:23:15;44.57;;;21.20;;
3875;SDS011;1953;51.222;6.624;2023-03-09T14:27:58;43.20;;;22.10;;
3875;SDS011;1953;51.222;6.624;2023-03-09T14:32:56;41.27;;;21.60;;
3875;SDS011;1953;51.222;6.624;2023-03-09T14:37:39;41.33;;;22.03;;
3875;SDS011;1953;51.222;6.624;2023-03-09T14:42:26;45.53;;;21.17;;
3875;SDS011;1953;51.222;6.624;2023-03-09T14:47:12;44.83;;;22.53;;
3875;SDS011;1953;51.222;6.624;2023-03-09T14:51:57;45.57;;;23.20;;
3875;SDS011;1953;51.222;6.624;2023-03-09T14:56:40;46.67;;;24.17;;
3875;SDS011;1953;51.222;6.624;2023-03-09T15:01:22;49.30;;;23.60;;
3875;SDS011;1953;51.222;6.624;2023-03-09T15:06:06;50.87;;;23.00;;
3875;SDS011;1953;51.222;6.624;2023-03-09T15:10:49;51.93;;;24.80;;
3875;SDS011;1953;51.222;6.624;2023-03-09T15:15:32;49.53;;;24.03;;
3875;SDS011;1953;51.222;6.624;2023-03-09T15:20:15;52.23;;;25.20;;
3875;SDS011;1953;51.222;6.624;2023-03-09T15:24:58;47.50;;;25.33;;
3875;SDS011;1953;51.222;6.624;2023-03-09T15:29:42;47.13;;;25.87;;
3875;SDS011;1953;51.222;6.624;2023-03-09T15:34:25;43.10;;;24.60;;
3875;SDS011;1953;51.222;6.624;2023-03-09T15:39:07;42.53;;;23.27;;
3875;SDS011;1953;51.222;6.624;2023-03-09T15:43:51;45.80;;;23.83;;
3875;SDS011;1953;51.222;6.624;2023-03-09T15:48:35;44.03;;;24.80;;
3875;SDS011;1953;51.222;6.624;2023-03-09T15:53:18;46.90;;;25.00;;
3875;SDS011;1953;51.222;6.624;2023-03-09T15:58:00;44.40;;;24.30;;
3875;SDS011;1953;51.222;6.624;2023-03-09T16:02:43;47.57;;;24.00;;
3875;SDS011;1953;51.222;6.624;2023-03-09T16:07:26;47.07;;;24.40;;
3875;SDS011;1953;51.222;6.624;2023-03-09T16:12:09;45.43;;;25.07;;
3875;SDS011;1953;51.222;6.624;2023-03-09T16:16:52;48.10;;;24.90;;
3875;SDS011;1953;51.222;6.624;2023-03-09T16:21:35;54.77;;;27.10;;
3875;SDS011;1953;51.222;6.624;2023-03-09T16:26:19;45.70;;;26.00;;
3875;SDS011;1953;51.222;6.624;2023-03-09T16:31:03;55.43;;;27.63;;
3875;SDS011;1953;51.222;6.624;2023-03-09T16:35:45;60.10;;;34.67;;
3875;SDS011;1953;51.222;6.624;2023-03-09T16:40:37;48.67;;;27.77;;
3875;SDS011;1953;51.222;6.624;2023-03-09T16:45:21;48.30;;;25.10;;
3875;SDS011;1953;51.222;6.624;2023-03-09T16:50:04;46.93;;;25.70;;
3875;SDS011;1953;51.222;6.624;2023-03-09T16:54:53;51.40;;;25.73;;
3875;SDS011;1953;51.222;6.624;2023-03-09T16:59:37;51.43;;;27.33;;
3875;SDS011;1953;51.222;6.624;2023-03-09T17:04:21;35.00;;;20.27;;
3875;SDS011;1953;51.222;6.624;2023-03-09T17:09:03;38.30;;;17.50;;
3875;SDS011;1953;51.222;6.624;2023-03-09T17:13:47;40.43;;;17.73;;
3875;SDS011;1953;51.222;6.624;2023-03-09T17:18:31;38.63;;;16.30;;
3875;SDS011;1953;51.222;6.624;2023-03-09T17:23:15;38.03;;;16.60;;
3875;SDS011;1953;51.222;6.624;2023-03-09T17:27:57;33.30;;;14.97;;
3875;SDS011;1953;51.222;6.624;2023-03-09T17:32:40;34.47;;;14.80;;
3875;SDS011;1953;51.222;6.624;2023-03-09T17:37:22;30.80;;;12.33;;
3875;SDS011;1953;51.222;6.624;2023-03-09T17:42:06;38.23;;;12.57;;
3875;SDS011;1953;51.222;6.624;2023-03-09T17:46:49;36.33;;;12.30;;
3875;SDS011;1953;51.222;6.624;2023-03-09T17:51:31;32.30;;;11.70;;
3875;SDS011;1953;51.222;6.624;2023-03-09T17:56:14;24.13;;;12.03;;
3875;SDS011;1953;51.222;6.624;2023-03-09T18:00:59;33.93;;;13.07;;
3875;SDS011;1953;51.222;6.624;2023-03-09T18:05:48;32.37;;;13.60;;
3875;SDS011;1953;51.222;6.624;2023-03-09T18:10:31;42.27;;;11.20;;
3875;SDS011;1953;51.222;6.624;2023-03-09T18:15:14;32.60;;;10.90;;
3875;SDS011;1953;51.222;6.624;2023-03-09T18:19:57;38.70;;;12.50;;
3875;SDS011;1953;51.222;6.624;2023-03-09T18:24:40;29.80;;;11.87;;
3875;SDS011;1953;51.222;6.624;2023-03-09T18:29:23;32.03;;;14.13;;
3875;SDS011;1953;51.222;6.624;2023-03-09T18:34:05;24.30;;;9.50;;
3875;SDS011;1953;51.222;6.624;2023-03-09T18:38:49;22.70;;;7.50;;
3875;SDS011;1953;51.222;6.624;2023-03-09T18:43:32;24.40;;;7.83;;
3875;SDS011;1953;51.222;6.624;2023-03-09T18:48:15;31.93;;;8.20;;
3875;SDS011;1953;51.222;6.624;2023-03-09T18:52:57;27.60;;;8.83;;
3875;SDS011;1953;51.222;6.624;2023-03-09T18:57:41;22.20;;;7.60;;
3875;SDS011;1953;51.222;6.624;2023-03-09T19:02:24;31.87;;;8.53;;
3875;SDS011;1953;51.222;6.624;2023-03-09T19:07:06;26.23;;;6.20;;
3875;SDS011;1953;51.222;6.624;2023-03-09T19:11:49;26.33;;;6.30;;
3875;SDS011;1953;51.222;6.624;2023-03-09T19:16:33;21.33;;;6.30;;
3875;SDS011;1953;51.222;6.624;2023-03-09T19:21:17;24.63;;;6.07;;
3875;SDS011;1953;51.222;6.624;2023-03-09T19:26:01;22.10;;;5.57;;
3875;SDS011;1953;51.222;6.624;2023-03-09T19:30:44;23.17;;;5.90;;
3875;SDS011;1953;51.222;6.624;2023-03-09T19:35:27;28.10;;;6.10;;
3875;SDS011;1953;51.222;6.624;2023-03-09T19:40:11;27.83;;;7.10;;
3875;SDS011;1953;51.222;6.624;2023-03-09T19:44:54;24.60;;;6.50;;
3875;SDS011;1953;51.222;6.624;2023-03-09T19:49:36;30.63;;;7.53;;
3875;SDS011;1953;51.222;6.624;2023-03-09T19:54:20;24.30;;;6.97;;
3875;SDS011;1953;51.222;6.624;2023-03-09T19:59:03;23.73;;;6.30;;
3875;SDS011;1953;51.222;6.624;2023-03-09T20:03:47;28.80;;;7.40;;
3875;SDS011;1953;51.222;6.624;2023-03-09T20:08:31;25.10;;;6.03;;
3875;SDS011;1953;51.222;6.624;2023-03-09T20:13:15;20.37;;;6.07;;
3875;SDS011;1953;51.222;6.624;2023-03-09T20:17:58;32.17;;;6.43;;
3875;SDS011;1953;51.222;6.624;2023-03-09T20:22:40;16.43;;;5.87;;
3875;SDS011;1953;51.222;6.624;2023-03-09T20:27:23;18.40;;;6.50;;
3875;SDS011;1953;51.222;6.624;2023-03-09T20:32:08;24.57;;;5.70;;
3875;SDS011;1953;51.222;6.624;2023-03-09T20:36:52;22.17;;;5.53;;
3875;SDS011;1953;51.222;6.624;2023-03-09T20:41:35;17.77;;;6.10;;
3875;SDS011;1953;51.222;6.624;2023-03-09T20:46:19;23.23;;;5.93;;
3875;SDS011;1953;51.222;6.624;2023-03-09T20:51:04;16.80;;;6.13;;
3875;SDS011;1953;51.222;6.624;2023-03-09T20:55:47;14.87;;;5.47;;
3875;SDS011;1953;51.222;6.624;2023-03-09T21:00:30;19.70;;;4.97;;
3875;SDS011;1953;51.222;6.624;2023-03-09T21:05:12;20.27;;;5.27;;
3875;SDS011;1953;51.222;6.624;2023-03-09T21:09:56;14.63;;;5.20;;
3875;SDS011;1953;51.222;6.624;2023-03-09T21:14:39;25.07;;;6.10;;
3875;SDS011;1953;51.222;6.624;2023-03-09T21:19:21;31.00;;;6.60;;
3875;SDS011;1953;51.222;6.624;2023-03-09T21:24:03;31.87;;;7.43;;
3875;SDS011;1953;51.222;6.624;2023-03-09T21:28:47;33.87;;;7.20;;
3875;SDS011;1953;51.222;6.624;2023-03-09T21:33:32;24.03;;;7.47;;
3875;SDS011;1953;51.222;6.624;2023-03-09T21:38:16;32.60;;;6.33;;
3875;SDS011;1953;51.222;6.624;2023-03-09T21:42:58;26.03;;;6.03;;
3875;SDS011;1953;51.222;6.624;2023-03-09T21:47:42;21.20;;;6.03;;
3875;SDS011;1953;51.222;6.624;2023-03-09T21:52:24;29.97;;;5.97;;
3875;SDS011;1953;51.222;6.624;2023-03-09T21:57:07;38.33;;;6.93;;
3875;SDS011;1953;51.222;6.624;2023-03-09T22:01:50;24.50;;;6.37;;
3875;SDS011;1953;51.222;6.624;2023-03-09T22:06:34;19.80;;;6.17;;
3875;SDS011;1953;51.222;6.624;2023-03-09T22:11:17;29.77;;;6.00;;
3875;SDS011;1953;51.222;6.624;2023-03-09T22:16:00;25.43;;;6.30;;
3875;SDS011;1953;51.222;6.624;2023-03-09T22:20:42;21.73;;;6.17;;
3875;SDS011;1953;51.222;6.624;2023-03-09T22:25:26;19.77;;;5.60;;
3875;SDS011;1953;51.222;6.624;2023-03-09T22:30:10;20.33;;;6.40;;
3875;SDS011;1953;51.222;6.624;2023-03-09T22:34:54;23.00;;;6.27;;
3875;SDS011;1953;51.222;6.624;2023-03-09T22:39:38;19.37;;;6.10;;
3875;SDS011;1953;51.222;6.624;2023-03-09T22:44:21;20.17;;;5.73;;
3875;SDS011;1953;51.222;6.624;2023-03-09T22:49:04;27.50;;;5.90;;
3875;SDS011;1953;51.222;6.624;2023-03-09T22:53:49;18.10;;;5.93;;
3875;SDS011;1953;51.222;6.624;2023-03-09T22:58:32;21.90;;;5.27;;
3875;SDS011;1953;51.222;6.624;2023-03-09T23:03:17;23.53;;;5.23;;
3875;SDS011;1953;51.222;6.624;2023-03-09T23:07:59;19.10;;;5.10;;
3875;SDS011;1953;51.222;6.624;2023-03-09T23:12:41;16.30;;;4.80;;
3875;SDS011;1953;51.222;6.624;2023-03-09T23:17:24;14.47;;;4.77;;
3875;SDS011;1953;51.222;6.624;2023-03-09T23:22:08;10.13;;;3.80;;
3875;SDS011;1953;51.222;6.624;2023-03-09T23:26:50;7.33;;;3.43;;
3875;SDS011;1953;51.222;6.624;2023-03-09T23:31:33;9.23;;;2.70;;
3875;SDS011;1953;51.222;6.624;2023-03-09T23:36:16;7.70;;;2.20;;
3875;SDS011;1953;51.222;6.624;2023-03-09T23:41:01;2.70;;;1.53;;
3875;SDS011;1953;51.222;6.624;2023-03-09T23:45:43;6.53;;;1.67;;
3875;SDS011;1953;51.222;6.624;2023-03-09T23:50:26;2.60;;;1.40;;
3875;SDS011;1953;51.222;6.624;2023-03-09T23:55:09;1.77;;;1.20;;
3875;SDS011;1953;51.222;6.624;2023-03-09T23:59:53;2.60;;;1.00;;
